Terminal Aerodrome Forecast
Issued by NWS

Home | Current Version | Previous Version | Text Only | Print | Product List | Glossary On
Versions: 1 2 3 4 5 6 7 8 9 10 11 12 13 14 15 16 17 18
000
FTUS42 KMLB 251130
TAFSUA
TAF
KSUA 251130Z 2512/2612 12009KT P6SM VCSH SCT020
     FM251400 11013KT P6SM SCT025 BKN050
     FM251600 11015G24KT P6SM FEW030 SCT060
     FM260000 10011KT P6SM SCT025=

USA.gov is the U.S. government's official web portal to all federal, state and local government web resources and services.